createdAt,value
2023-04-18T00:02:11.261Z,3.78
2023-04-18T00:04:38.296Z,3.33
2023-04-18T00:07:05.222Z,4.10
2023-04-18T00:09:32.115Z,3.62
2023-04-18T00:11:59.004Z,3.28
2023-04-18T00:14:25.949Z,3.60
2023-04-18T00:16:54.338Z,3.80
2023-04-18T00:19:21.744Z,3.50
2023-04-18T00:21:49.616Z,3.45
2023-04-18T00:24:16.861Z,4.15
2023-04-18T00:26:43.697Z,4.18
2023-04-18T00:29:10.605Z,4.10
2023-04-18T00:31:37.576Z,4.15
2023-04-18T00:34:04.504Z,4.40
2023-04-18T00:36:31.364Z,4.07
2023-04-18T00:38:58.231Z,4.18
2023-04-18T00:41:27.710Z,4.00
2023-04-18T00:43:55.282Z,3.92
2023-04-18T00:46:22.212Z,3.83
2023-04-18T00:48:49.516Z,3.92
2023-04-18T00:51:16.467Z,3.87
2023-04-18T00:53:44.593Z,4.35
2023-04-18T00:56:11.781Z,4.00
2023-04-18T00:58:40.741Z,4.07
2023-04-18T01:01:08.109Z,3.87
2023-04-18T01:03:35.423Z,4.30
2023-04-18T01:06:02.477Z,3.97
2023-04-18T01:08:29.695Z,3.70
2023-04-18T01:10:56.532Z,4.03
2023-04-18T01:13:23.403Z,4.22
2023-04-18T01:15:51.031Z,4.05
2023-04-18T01:18:18.125Z,4.70
2023-04-18T01:20:49.949Z,4.05
2023-04-18T01:23:18.700Z,4.00
2023-04-18T01:25:46.859Z,4.45
2023-04-18T01:28:14.735Z,3.80
2023-04-18T01:30:41.823Z,4.18
2023-04-18T01:33:08.767Z,3.90
2023-04-18T01:35:35.874Z,3.60
2023-04-18T01:38:02.752Z,4.22
2023-04-18T01:40:30.408Z,4.10
2023-04-18T01:42:57.263Z,4.28
2023-04-18T01:45:24.269Z,3.72
2023-04-18T01:47:51.261Z,4.03
2023-04-18T01:50:18.220Z,3.83
2023-04-18T01:52:45.154Z,4.10
2023-04-18T01:55:12.255Z,3.55
2023-04-18T01:57:39.256Z,3.85
2023-04-18T02:00:07.134Z,3.70
2023-04-18T02:02:34.312Z,3.72
2023-04-18T02:05:01.420Z,3.90
2023-04-18T02:07:28.407Z,3.62
2023-04-18T02:09:55.308Z,4.32
2023-04-18T02:12:22.247Z,3.47
2023-04-18T02:14:54.282Z,4.03
2023-04-18T02:17:23.686Z,3.90
2023-04-18T02:19:53.959Z,3.95
2023-04-18T02:22:20.802Z,4.20
2023-04-18T02:24:47.675Z,4.25
2023-04-18T02:27:14.568Z,4.10
2023-04-18T02:29:41.459Z,3.35
2023-04-18T02:32:09.271Z,3.97
2023-04-18T02:34:36.975Z,3.87
2023-04-18T02:37:04.467Z,4.30
2023-04-18T02:39:31.821Z,4.05
2023-04-18T02:41:58.983Z,4.18
2023-04-18T02:44:25.896Z,4.12
2023-04-18T02:46:52.774Z,4.25
2023-04-18T02:49:19.981Z,3.65
2023-04-18T02:51:46.971Z,3.87
2023-04-18T02:54:13.987Z,3.87
2023-04-18T02:56:42.978Z,3.70
2023-04-18T02:59:09.877Z,3.65
2023-04-18T03:01:37.051Z,3.62
2023-04-18T03:04:04.062Z,3.80
2023-04-18T03:06:31.913Z,3.83
2023-04-18T03:08:58.957Z,3.85
2023-04-18T03:11:25.982Z,3.87
2023-04-18T03:13:53.987Z,3.80
2023-04-18T03:16:21.070Z,4.05
2023-04-18T03:18:48.022Z,4.30
2023-04-18T03:21:15.047Z,4.43
2023-04-18T03:23:41.908Z,4.45
2023-04-18T03:26:09.254Z,4.50
2023-04-18T03:28:36.107Z,3.80
2023-04-18T03:31:03.047Z,4.50
2023-04-18T03:33:29.900Z,4.70
2023-04-18T03:35:56.840Z,4.30
2023-04-18T03:38:23.727Z,4.25
2023-04-18T03:40:50.604Z,4.57
2023-04-18T03:43:18.495Z,4.37
2023-04-18T03:45:47.518Z,4.40
2023-04-18T03:48:14.839Z,4.00
2023-04-18T03:50:41.796Z,4.55
2023-04-18T03:53:08.674Z,4.57
2023-04-18T03:55:35.691Z,4.62
2023-04-18T03:58:02.613Z,4.85
2023-04-18T04:00:29.570Z,4.43
2023-04-18T04:02:56.643Z,4.40
2023-04-18T04:05:23.773Z,4.70
2023-04-18T04:07:50.784Z,4.47
2023-04-18T04:10:17.662Z,4.10
2023-04-18T04:12:44.585Z,3.87
2023-04-18T04:15:12.070Z,3.70
2023-04-18T04:17:39.108Z,4.30
2023-04-18T04:20:06.579Z,4.25
2023-04-18T04:22:34.588Z,3.80
2023-04-18T04:25:01.587Z,4.10
2023-04-18T04:27:28.469Z,4.32
2023-04-18T04:29:56.600Z,3.90
2023-04-18T04:32:24.198Z,3.47
2023-04-18T04:34:51.087Z,3.87
2023-04-18T04:37:18.905Z,3.90
2023-04-18T04:39:46.325Z,4.25
2023-04-18T04:42:13.630Z,4.22
2023-04-18T04:44:41.879Z,4.07
2023-04-18T04:47:08.768Z,3.72
2023-04-18T04:49:35.905Z,4.28
2023-04-18T04:52:03.237Z,3.72
2023-04-18T04:54:30.532Z,3.90
2023-04-18T04:56:57.465Z,4.05
2023-04-18T04:59:24.777Z,3.53
2023-04-18T05:01:51.715Z,3.83
2023-04-18T05:04:18.865Z,3.78
2023-04-18T05:06:46.289Z,3.95
2023-04-18T05:09:13.781Z,4.32
2023-04-18T05:11:40.715Z,4.25
2023-04-18T05:14:07.678Z,4.30
2023-04-18T05:16:34.552Z,4.12
2023-04-18T05:19:01.540Z,3.67
2023-04-18T05:21:29.125Z,4.28
2023-04-18T05:23:58.936Z,4.18
2023-04-18T05:26:25.821Z,4.45
2023-04-18T05:28:52.685Z,4.10
2023-04-18T05:31:19.640Z,4.57
2023-04-18T05:33:46.567Z,3.83
2023-04-18T05:36:13.479Z,3.97
2023-04-18T05:38:40.395Z,4.50
2023-04-18T05:41:07.219Z,4.30
2023-04-18T05:43:34.154Z,4.32
2023-04-18T05:46:01.060Z,3.97
2023-04-18T05:48:27.958Z,4.10
2023-04-18T05:50:54.843Z,4.70
2023-04-18T05:53:21.889Z,4.85
2023-04-18T05:55:49.055Z,5.40
2023-04-18T05:58:16.314Z,5.35
2023-04-18T06:00:48.162Z,5.18
2023-04-18T06:03:15.254Z,4.87
2023-04-18T06:05:42.372Z,5.18
2023-04-18T06:08:09.347Z,4.80
2023-04-18T06:10:38.898Z,4.87
2023-04-18T06:13:06.217Z,4.70
2023-04-18T06:15:33.118Z,5.53
2023-04-18T06:17:59.989Z,5.47
2023-04-18T06:20:26.913Z,4.78
2023-04-18T06:22:53.815Z,4.75
2023-04-18T06:25:20.992Z,5.18
2023-04-18T06:27:50.196Z,4.70
2023-04-18T06:30:17.071Z,5.22
2023-04-18T06:32:44.098Z,5.47
2023-04-18T06:35:11.184Z,5.47
2023-04-18T06:37:38.084Z,5.28
2023-04-18T06:40:05.728Z,5.00
2023-04-18T06:42:32.640Z,4.78
2023-04-18T06:44:59.568Z,5.40
2023-04-18T06:47:26.698Z,6.10
2023-04-18T06:49:55.576Z,5.25
2023-04-18T06:52:22.550Z,5.22
2023-04-18T06:54:49.429Z,5.95
2023-04-18T06:57:16.354Z,5.78
2023-04-18T06:59:43.315Z,5.18
2023-04-18T07:02:10.222Z,5.15
2023-04-18T07:04:37.200Z,5.80
2023-04-18T07:07:05.370Z,6.07
2023-04-18T07:09:32.453Z,5.70
2023-04-18T07:11:59.378Z,5.15
2023-04-18T07:14:28.186Z,5.30
2023-04-18T07:16:56.175Z,4.60
2023-04-18T07:19:23.115Z,4.72
2023-04-18T07:21:50.088Z,4.97
2023-04-18T07:24:17.021Z,3.92
2023-04-18T07:26:44.010Z,4.68
2023-04-18T07:29:20.376Z,4.30
2023-04-18T07:31:47.543Z,3.87
2023-04-18T07:34:15.345Z,3.47
2023-04-18T07:36:42.834Z,3.70
2023-04-18T07:39:13.729Z,3.15
2023-04-18T07:41:40.590Z,3.90
2023-04-18T07:44:07.552Z,4.07
2023-04-18T07:46:34.543Z,3.60
2023-04-18T07:49:02.532Z,3.90
2023-04-18T07:51:31.897Z,3.05
2023-04-18T07:53:59.669Z,3.70
2023-04-18T07:56:27.357Z,3.15
2023-04-18T07:58:54.366Z,3.03
2023-04-18T08:01:24.310Z,2.60
2023-04-18T08:03:53.513Z,3.25
2023-04-18T08:06:21.561Z,3.90
2023-04-18T08:08:51.389Z,3.12
2023-04-18T08:11:18.282Z,3.40
2023-04-18T08:13:45.185Z,3.85
2023-04-18T08:16:12.856Z,3.53
2023-04-18T08:18:41.288Z,3.00
2023-04-18T08:21:08.134Z,2.58
2023-04-18T08:23:34.995Z,3.33
2023-04-18T08:26:01.867Z,3.17
2023-04-18T08:28:29.756Z,3.45
2023-04-18T08:30:56.953Z,3.33
2023-04-18T08:33:24.597Z,3.22
2023-04-18T08:35:52.008Z,3.80
2023-04-18T08:38:19.370Z,3.90
2023-04-18T08:40:46.631Z,2.58
2023-04-18T08:43:15.395Z,3.70
2023-04-18T08:45:43.371Z,3.65
2023-04-18T08:48:16.523Z,2.70
2023-04-18T08:50:45.688Z,2.75
2023-04-18T08:53:12.594Z,2.92
2023-04-18T08:55:40.681Z,2.97
2023-04-18T08:58:08.144Z,2.40
2023-04-18T09:00:35.399Z,3.75
2023-04-18T09:03:03.141Z,2.95
2023-04-18T09:05:30.148Z,2.40
2023-04-18T09:07:57.072Z,2.45
2023-04-18T09:10:33.143Z,2.92
2023-04-18T09:13:03.427Z,2.70
2023-04-18T09:15:33.919Z,2.00
2023-04-18T09:18:03.065Z,2.67
2023-04-18T09:20:38.078Z,2.40
2023-04-18T09:23:11.340Z,2.33
2023-04-18T09:25:49.175Z,2.33
2023-04-18T09:28:29.061Z,2.12
2023-04-18T09:31:11.994Z,1.80
2023-04-18T09:33:45.471Z,2.60
2023-04-18T09:36:20.593Z,2.08
2023-04-18T09:38:51.683Z,2.65
2023-04-18T09:41:21.656Z,2.20
2023-04-18T09:43:48.719Z,3.08
2023-04-18T09:46:17.992Z,2.10
2023-04-18T09:48:45.011Z,3.45
2023-04-18T09:51:15.128Z,2.70
2023-04-18T09:53:47.790Z,3.28
2023-04-18T09:56:26.324Z,3.00
2023-04-18T09:59:12.663Z,3.12
2023-04-18T10:01:46.063Z,3.30
2023-04-18T10:04:14.985Z,3.28
2023-04-18T10:06:45.066Z,3.53
2023-04-18T10:09:12.679Z,3.25
2023-04-18T10:11:39.750Z,3.50
2023-04-18T10:14:12.831Z,2.90
2023-04-18T10:16:40.130Z,3.28
2023-04-18T10:19:27.301Z,3.75
2023-04-18T10:21:55.814Z,3.55
2023-04-18T10:24:48.710Z,2.53
2023-04-18T10:27:17.137Z,2.70
2023-04-18T10:30:02.081Z,3.03
2023-04-18T10:32:29.051Z,2.90
2023-04-18T10:34:56.301Z,3.20
2023-04-18T10:37:23.156Z,2.78
2023-04-18T10:40:06.004Z,3.28
2023-04-18T10:42:48.311Z,3.25
2023-04-18T10:45:25.133Z,3.22
2023-04-18T10:48:31.352Z,3.45
2023-04-18T10:51:14.193Z,2.78
2023-04-18T10:53:49.260Z,3.03
2023-04-18T10:56:16.865Z,2.90
2023-04-18T10:59:03.399Z,3.20
2023-04-18T11:01:33.011Z,2.90
2023-04-18T11:04:00.790Z,2.80
2023-04-18T11:06:28.345Z,2.40
2023-04-18T11:09:11.988Z,3.12
2023-04-18T11:11:38.951Z,2.87
2023-04-18T11:14:05.787Z,2.83
2023-04-18T11:16:33.866Z,3.20
2023-04-18T11:19:01.208Z,2.92
2023-04-18T11:21:30.638Z,3.05
2023-04-18T11:23:58.337Z,3.30
2023-04-18T11:26:29.156Z,3.47
2023-04-18T11:28:59.403Z,2.83
2023-04-18T11:31:26.335Z,2.55
2023-04-18T11:33:56.595Z,3.10
2023-04-18T11:36:23.452Z,2.70
2023-04-18T11:38:50.314Z,2.80
2023-04-18T11:41:17.174Z,2.95
2023-04-18T11:43:45.431Z,2.55
2023-04-18T11:46:13.493Z,3.35
2023-04-18T11:48:42.283Z,2.70
2023-04-18T11:51:32.102Z,2.83
2023-04-18T11:53:58.934Z,3.15
2023-04-18T11:56:25.869Z,2.85
2023-04-18T11:58:52.897Z,2.58
2023-04-18T12:01:23.432Z,2.70
2023-04-18T12:04:10.620Z,3.05
2023-04-18T12:06:51.034Z,2.85
2023-04-18T12:09:18.554Z,3.00
2023-04-18T12:12:00.250Z,3.12
2023-04-18T12:14:27.541Z,2.53
2023-04-18T12:16:54.645Z,2.45
2023-04-18T12:19:27.686Z,3.00
2023-04-18T12:22:00.753Z,2.90
2023-04-18T12:24:30.135Z,2.78
2023-04-18T12:26:58.247Z,2.70
2023-04-18T12:29:26.042Z,3.00
2023-04-18T12:31:53.237Z,2.60
2023-04-18T12:34:20.420Z,3.08
2023-04-18T12:36:47.365Z,2.90
2023-04-18T12:39:14.354Z,3.25
2023-04-18T12:41:41.176Z,2.85
2023-04-18T12:44:08.009Z,2.50
2023-04-18T12:46:34.926Z,2.30
2023-04-18T12:49:01.843Z,2.55
2023-04-18T12:51:28.666Z,2.50
2023-04-18T12:53:55.609Z,2.85
2023-04-18T12:56:22.496Z,2.70
2023-04-18T12:58:49.647Z,3.12
2023-04-18T13:01:17.224Z,2.47
2023-04-18T13:03:45.555Z,2.85
2023-04-18T13:06:15.914Z,3.12
2023-04-18T13:08:42.910Z,2.65
2023-04-18T13:11:09.768Z,2.80
2023-04-18T13:13:36.622Z,3.47
2023-04-18T13:16:03.636Z,2.80
2023-04-18T13:18:30.518Z,3.17
2023-04-18T13:20:57.394Z,2.72
2023-04-18T13:23:24.206Z,3.30
2023-04-18T13:25:51.076Z,3.20
2023-04-18T13:28:17.948Z,2.90
2023-04-18T13:30:44.775Z,2.90
2023-04-18T13:33:11.728Z,2.85
2023-04-18T13:35:38.625Z,3.17
2023-04-18T13:38:05.489Z,3.00
2023-04-18T13:40:33.611Z,2.97
2023-04-18T13:43:00.536Z,3.20
2023-04-18T13:45:27.557Z,3.03
2023-04-18T13:47:54.577Z,2.83
2023-04-18T13:50:21.641Z,2.70
2023-04-18T13:52:49.413Z,3.10
2023-04-18T13:55:16.367Z,2.87
2023-04-18T13:57:43.240Z,2.97
2023-04-18T14:00:12.947Z,2.95
2023-04-18T14:02:40.196Z,2.80
2023-04-18T14:05:07.713Z,2.80
2023-04-18T14:07:35.523Z,2.97
2023-04-18T14:10:02.468Z,3.22
2023-04-18T14:12:29.293Z,3.00
2023-04-18T14:14:56.134Z,2.58
2023-04-18T14:17:23.002Z,3.05
2023-04-18T14:19:51.480Z,3.08
2023-04-18T14:22:18.333Z,2.90
2023-04-18T14:24:45.206Z,3.20
2023-04-18T14:27:12.099Z,2.75
2023-04-18T14:29:38.973Z,3.67
2023-04-18T14:32:07.199Z,3.40
2023-04-18T14:34:35.315Z,3.65
2023-04-18T14:37:03.808Z,3.30
2023-04-18T14:39:31.216Z,3.20
2023-04-18T14:41:58.160Z,3.15
2023-04-18T14:44:25.081Z,3.50
2023-04-18T14:46:51.964Z,3.30
2023-04-18T14:49:18.869Z,3.35
2023-04-18T14:51:45.791Z,3.28
2023-04-18T14:54:12.945Z,3.78
2023-04-18T14:56:39.829Z,3.28
2023-04-18T14:59:06.753Z,3.35
2023-04-18T15:01:33.687Z,3.70
2023-04-18T15:04:00.744Z,3.75
2023-04-18T15:06:28.597Z,3.37
2023-04-18T15:08:56.027Z,3.20
2023-04-18T15:11:23.287Z,3.80
2023-04-18T15:13:50.910Z,3.42
2023-04-18T15:16:17.837Z,3.25
2023-04-18T15:18:45.241Z,3.35
2023-04-18T15:21:12.148Z,3.30
2023-04-18T15:23:39.104Z,3.50
2023-04-18T15:26:06.334Z,2.75
2023-04-18T15:28:33.229Z,2.97
2023-04-18T15:31:00.250Z,3.78
2023-04-18T15:33:27.205Z,3.12
2023-04-18T15:35:55.742Z,3.20
2023-04-18T15:38:22.655Z,3.28
2023-04-18T15:40:49.581Z,3.30
2023-04-18T15:43:17.365Z,3.10
2023-04-18T15:45:44.780Z,3.40
2023-04-18T15:48:13.274Z,3.15
2023-04-18T15:50:42.614Z,2.90
2023-04-18T15:53:09.561Z,3.25
2023-04-18T15:55:36.544Z,3.37
2023-04-18T15:58:03.692Z,2.78
2023-04-18T16:00:30.628Z,3.28
2023-04-18T16:02:57.573Z,3.28
2023-04-18T16:05:24.507Z,3.53
2023-04-18T16:07:53.890Z,2.30
2023-04-18T16:10:20.925Z,1.48
2023-04-18T16:12:47.943Z,1.50
2023-04-18T16:15:14.845Z,1.58
2023-04-18T16:17:41.745Z,1.40
2023-04-18T16:20:09.304Z,2.10
2023-04-18T16:22:36.745Z,2.40
2023-04-18T16:25:04.572Z,2.53
2023-04-18T16:27:31.509Z,2.25
2023-04-18T16:29:59.466Z,2.37
2023-04-18T16:32:26.577Z,2.50
2023-04-18T16:34:53.509Z,2.25
2023-04-18T16:37:20.499Z,2.33
2023-04-18T16:39:50.366Z,3.00
2023-04-18T16:42:17.221Z,2.65
2023-04-18T16:44:45.437Z,2.60
2023-04-18T16:47:12.315Z,2.80
2023-04-18T16:49:45.000Z,2.92
2023-04-18T16:52:11.912Z,2.12
2023-04-18T16:54:38.812Z,2.10
2023-04-18T16:57:05.771Z,2.62
2023-04-18T16:59:46.072Z,2.28
2023-04-18T17:02:13.115Z,2.10
2023-04-18T17:04:40.221Z,2.30
2023-04-18T17:07:07.207Z,2.42
2023-04-18T17:10:31.548Z,1.90
2023-04-18T17:12:58.822Z,1.70
2023-04-18T17:15:27.289Z,1.70
2023-04-18T17:17:56.019Z,1.80
2023-04-18T17:20:23.743Z,1.67
2023-04-18T17:22:51.240Z,1.42
2023-04-18T17:25:18.178Z,1.62
2023-04-18T17:27:45.048Z,1.60
2023-04-18T17:30:12.197Z,1.95
2023-04-18T17:32:45.963Z,1.83
2023-04-18T17:35:14.795Z,1.90
2023-04-18T17:38:01.267Z,1.90
2023-04-18T17:40:28.337Z,1.95
2023-04-18T17:42:55.172Z,1.60
2023-04-18T17:45:22.075Z,1.70
2023-04-18T17:47:57.673Z,1.65
2023-04-18T17:50:24.599Z,1.90
2023-04-18T17:52:51.462Z,1.60
2023-04-18T17:55:18.644Z,1.60
2023-04-18T17:57:45.595Z,1.73
2023-04-18T18:00:13.947Z,1.52
2023-04-18T18:02:42.928Z,1.75
2023-04-18T18:05:13.971Z,1.50
2023-04-18T18:07:43.279Z,1.65
2023-04-18T18:10:19.188Z,2.00
2023-04-18T18:12:46.336Z,1.90
2023-04-18T18:15:13.372Z,2.03
2023-04-18T18:17:40.334Z,1.65
2023-04-18T18:20:10.593Z,2.00
2023-04-18T18:22:37.550Z,2.97
2023-04-18T18:25:05.574Z,1.75
2023-04-18T18:27:32.480Z,1.92
2023-04-18T18:30:18.413Z,2.00
2023-04-18T18:32:45.281Z,2.20
2023-04-18T18:35:12.738Z,2.25
2023-04-18T18:37:39.601Z,2.30
2023-04-18T18:40:07.478Z,2.58
2023-04-18T18:42:34.524Z,2.33
2023-04-18T18:45:01.821Z,2.10
2023-04-18T18:47:30.629Z,2.05
2023-04-18T18:50:12.867Z,1.87
2023-04-18T18:52:43.567Z,2.28
2023-04-18T18:55:11.073Z,2.10
2023-04-18T18:57:37.997Z,2.20
2023-04-18T19:00:09.791Z,2.17
2023-04-18T19:02:37.382Z,2.62
2023-04-18T19:05:05.860Z,2.30
2023-04-18T19:07:33.758Z,2.17
2023-04-18T19:10:10.250Z,1.92
2023-04-18T19:12:38.035Z,1.92
2023-04-18T19:15:06.077Z,1.80
2023-04-18T19:17:33.030Z,2.00
2023-04-18T19:23:04.562Z,2.62
2023-04-18T19:25:31.493Z,1.60
2023-04-18T19:28:35.930Z,1.77
2023-04-18T19:31:02.829Z,1.77
2023-04-18T19:33:30.417Z,2.08
2023-04-18T19:35:57.321Z,1.67
2023-04-18T19:38:43.509Z,1.77
2023-04-18T19:41:10.444Z,1.60
2023-04-18T19:43:38.561Z,1.62
2023-04-18T19:46:05.517Z,1.60
2023-04-18T19:48:43.407Z,1.70
2023-04-18T19:51:10.573Z,1.80
2023-04-18T19:53:37.466Z,1.80
2023-04-18T19:56:04.519Z,1.70
2023-04-18T19:58:34.938Z,1.60
2023-04-18T20:01:02.238Z,1.83
2023-04-18T20:03:29.291Z,1.98
2023-04-18T20:05:56.401Z,2.05
2023-04-18T20:08:25.449Z,2.00
2023-04-18T20:10:52.324Z,1.80
2023-04-18T20:13:19.258Z,2.28
2023-04-18T20:15:46.130Z,1.95
2023-04-18T20:18:13.041Z,2.22
2023-04-18T20:20:39.880Z,2.08
2023-04-18T20:25:36.454Z,1.85
2023-04-18T20:28:11.115Z,2.25
2023-04-18T20:30:38.039Z,2.25
2023-04-18T20:33:05.012Z,2.10
2023-04-18T20:35:31.900Z,2.30
2023-04-18T20:38:00.390Z,2.05
2023-04-18T20:40:28.295Z,2.10
2023-04-18T20:42:58.013Z,1.90
2023-04-18T20:45:25.357Z,2.35
2023-04-18T20:47:52.408Z,1.90
2023-04-18T20:50:20.659Z,2.00
2023-04-18T20:52:47.796Z,2.20
2023-04-18T20:55:16.888Z,2.00
2023-04-18T20:57:43.784Z,2.53
2023-04-18T21:00:14.284Z,2.62
2023-04-18T21:02:41.848Z,2.28
2023-04-18T21:05:09.151Z,2.50
2023-04-18T21:07:36.393Z,2.20
2023-04-18T21:10:04.208Z,2.25
2023-04-18T21:12:31.047Z,1.92
2023-04-18T21:14:57.910Z,2.20
2023-04-18T21:17:25.699Z,1.90
2023-04-18T21:19:52.824Z,2.40
2023-04-18T21:22:19.808Z,2.10
2023-04-18T21:24:47.023Z,2.42
2023-04-18T21:27:15.948Z,2.30
2023-04-18T21:29:48.057Z,2.05
2023-04-18T21:32:14.900Z,2.20
2023-04-18T21:34:41.775Z,1.90
2023-04-18T21:37:08.660Z,2.22
2023-04-18T21:39:45.758Z,2.25
2023-04-18T21:42:12.884Z,2.25
2023-04-18T21:44:39.771Z,2.15
2023-04-18T21:47:06.600Z,2.12
2023-04-18T21:49:34.492Z,2.45
2023-04-18T21:52:01.395Z,2.50
2023-04-18T21:54:28.212Z,2.53
2023-04-18T21:56:55.033Z,2.47
2023-04-18T21:59:44.689Z,2.50
2023-04-18T22:02:11.717Z,2.80
2023-04-18T22:04:42.908Z,3.08
2023-04-18T22:07:11.506Z,3.03
2023-04-18T22:09:48.549Z,3.10
2023-04-18T22:12:15.725Z,3.12
2023-04-18T22:14:48.328Z,3.12
2023-04-18T22:17:15.290Z,3.50
2023-04-18T22:19:44.569Z,3.72
2023-04-18T22:22:11.709Z,3.53
2023-04-18T22:24:38.610Z,3.83
2023-04-18T22:27:05.956Z,5.00
2023-04-18T22:29:46.977Z,4.35
2023-04-18T22:32:13.884Z,4.43
2023-04-18T22:34:40.851Z,4.90
2023-04-18T22:37:07.679Z,5.72
2023-04-18T22:39:50.742Z,5.05
2023-04-18T22:42:17.729Z,4.72
2023-04-18T22:44:44.620Z,5.00
2023-04-18T22:47:11.662Z,5.25
2023-04-18T22:49:54.169Z,6.47
2023-04-18T22:52:23.893Z,5.93
2023-04-18T22:54:53.998Z,5.65
2023-04-18T22:57:21.136Z,6.40
2023-04-18T22:59:49.001Z,6.55
2023-04-18T23:02:16.235Z,6.45
2023-04-18T23:04:45.483Z,7.07
2023-04-18T23:07:12.425Z,7.75
2023-04-18T23:09:39.293Z,7.53
2023-04-18T23:12:06.182Z,7.22
2023-04-18T23:14:34.511Z,8.52
2023-04-18T23:17:01.661Z,8.13
2023-04-18T23:19:28.553Z,8.23
2023-04-18T23:21:55.667Z,7.90
2023-04-18T23:24:22.524Z,8.35
2023-04-18T23:26:49.399Z,8.80
2023-04-18T23:29:26.329Z,9.05
2023-04-18T23:31:53.274Z,8.63
2023-04-18T23:34:20.206Z,8.07
2023-04-18T23:36:47.326Z,8.55
2023-04-18T23:39:47.487Z,9.15
2023-04-18T23:42:14.349Z,8.18
2023-04-18T23:44:41.213Z,8.35
2023-04-18T23:47:08.121Z,7.82
2023-04-18T23:49:59.747Z,7.85
2023-04-18T23:52:26.614Z,7.70
2023-04-18T23:54:53.538Z,8.30
2023-04-18T23:57:20.404Z,7.22
